createdAt,value
2019-05-20T00:00:27.902Z,14.06
2019-05-20T00:02:55.147Z,14.00
2019-05-20T00:05:23.736Z,14.13
2019-05-20T00:07:50.957Z,14.15
2019-05-20T00:10:18.208Z,14.17
2019-05-20T00:12:45.454Z,14.19
2019-05-20T00:15:13.187Z,14.05
2019-05-20T00:17:40.447Z,14.27
2019-05-20T00:20:08.665Z,14.28
2019-05-20T00:22:35.951Z,14.27
2019-05-20T00:25:05.171Z,14.18
2019-05-20T00:27:34.114Z,14.07
2019-05-20T00:30:01.329Z,14.02
2019-05-20T00:32:40.600Z,13.97
2019-05-20T00:34:58.279Z,13.92
2019-05-20T00:37:25.569Z,13.88
2019-05-20T00:39:52.878Z,13.78
2019-05-20T00:42:20.129Z,13.70
2019-05-20T00:44:47.392Z,13.61
2019-05-20T00:47:16.520Z,13.60
2019-05-20T00:49:43.790Z,13.77
2019-05-20T00:52:12.317Z,13.73
2019-05-20T00:54:41.157Z,13.63
2019-05-20T00:57:08.677Z,13.53
2019-05-20T00:59:36.894Z,13.43
2019-05-20T01:02:04.188Z,13.35
2019-05-20T01:04:31.492Z,13.29
2019-05-20T01:07:00.901Z,13.22
2019-05-20T01:09:29.603Z,13.22
2019-05-20T01:11:57.055Z,13.17
2019-05-20T01:14:24.294Z,13.08
2019-05-20T01:16:51.591Z,13.01
2019-05-20T01:19:19.388Z,12.92
2019-05-20T01:21:46.609Z,12.86
2019-05-20T01:24:14.921Z,12.81
2019-05-20T01:26:42.339Z,12.69
2019-05-20T01:29:09.547Z,12.60
2019-05-20T01:31:36.820Z,12.60
2019-05-20T01:34:04.205Z,12.52
2019-05-20T01:36:31.374Z,12.45
2019-05-20T01:38:59.037Z,12.39
2019-05-20T01:41:26.388Z,12.39
2019-05-20T01:43:53.631Z,12.36
2019-05-20T01:46:20.830Z,12.33
2019-05-20T01:48:48.095Z,12.25
2019-05-20T01:51:15.499Z,12.20
2019-05-20T01:53:42.740Z,12.15
2019-05-20T01:56:10.440Z,12.15
2019-05-20T01:58:39.762Z,12.21
2019-05-20T02:01:07.134Z,12.17
2019-05-20T02:03:34.475Z,12.10
2019-05-20T02:06:01.716Z,12.07
2019-05-20T02:08:29.612Z,12.01
2019-05-20T02:10:57.032Z,12.02
2019-05-20T02:13:27.499Z,12.00
2019-05-20T02:16:03.425Z,11.93
2019-05-20T02:18:30.631Z,11.92
2019-05-20T02:20:58.511Z,11.87
2019-05-20T02:23:26.137Z,11.84
2019-05-20T02:25:53.387Z,11.84
2019-05-20T02:28:20.789Z,11.90
2019-05-20T02:30:48.104Z,11.94
2019-05-20T02:33:15.317Z,11.93
2019-05-20T02:35:42.430Z,11.91
2019-05-20T02:38:09.720Z,11.84
2019-05-20T02:40:37.392Z,11.82
2019-05-20T02:43:04.635Z,11.85
2019-05-20T02:45:32.581Z,11.88
2019-05-20T02:47:59.857Z,11.90
2019-05-20T02:50:27.151Z,11.91
2019-05-20T02:52:54.766Z,11.87
2019-05-20T02:55:22.032Z,11.84
2019-05-20T02:57:49.238Z,11.85
2019-05-20T03:00:16.627Z,11.79
2019-05-20T03:02:44.128Z,11.78
2019-05-20T03:05:11.588Z,11.74
2019-05-20T03:07:39.257Z,11.71
2019-05-20T03:10:07.009Z,11.71
2019-05-20T03:12:34.250Z,11.72
2019-05-20T03:15:01.647Z,11.77
2019-05-20T03:17:29.371Z,11.82
2019-05-20T03:19:56.584Z,11.81
2019-05-20T03:22:23.787Z,11.84
2019-05-20T03:24:51.381Z,11.83
2019-05-20T03:27:18.589Z,11.82
2019-05-20T03:29:45.876Z,11.82
2019-05-20T03:32:13.108Z,11.84
2019-05-20T03:34:46.780Z,11.84
2019-05-20T03:37:09.931Z,11.87
2019-05-20T03:39:37.258Z,11.90
2019-05-20T03:42:04.781Z,11.94
2019-05-20T03:44:31.951Z,12.01
2019-05-20T03:46:59.433Z,12.13
2019-05-20T03:49:26.712Z,12.20
2019-05-20T03:51:55.783Z,12.26
2019-05-20T03:54:23.037Z,12.35
2019-05-20T03:56:50.864Z,12.43
2019-05-20T03:59:18.413Z,12.50
2019-05-20T04:01:45.909Z,12.60
2019-05-20T04:04:13.703Z,12.70
2019-05-20T04:06:40.941Z,12.79
2019-05-20T04:09:08.275Z,12.88
2019-05-20T04:11:35.569Z,12.99
2019-05-20T04:14:03.017Z,13.12
2019-05-20T04:16:30.281Z,13.24
2019-05-20T04:18:57.598Z,13.37
2019-05-20T04:21:24.909Z,13.51
2019-05-20T04:23:52.231Z,13.66
2019-05-20T04:26:21.726Z,13.79
2019-05-20T04:28:49.262Z,13.97
2019-05-20T04:31:16.610Z,14.14
2019-05-20T04:33:44.016Z,14.23
2019-05-20T04:36:11.585Z,14.35
2019-05-20T04:38:38.882Z,14.45
2019-05-20T04:41:06.403Z,14.54
2019-05-20T04:43:34.048Z,14.72
2019-05-20T04:46:01.813Z,14.81
2019-05-20T04:48:29.526Z,14.91
2019-05-20T04:50:57.330Z,15.10
2019-05-20T04:53:24.548Z,15.38
2019-05-20T04:55:52.114Z,15.61
2019-05-20T04:58:20.058Z,15.91
2019-05-20T05:00:52.333Z,16.42
2019-05-20T05:03:19.813Z,16.91
2019-05-20T05:05:47.915Z,17.48
2019-05-20T05:08:15.980Z,18.26
2019-05-20T05:10:43.324Z,19.24
2019-05-20T05:13:10.641Z,20.10
2019-05-20T05:15:37.940Z,20.96
2019-05-20T05:18:05.178Z,21.71
2019-05-20T05:20:34.197Z,22.02
2019-05-20T05:23:01.822Z,22.67
2019-05-20T05:25:29.171Z,23.01
2019-05-20T05:27:56.726Z,23.13
2019-05-20T05:30:26.697Z,23.06
2019-05-20T05:32:54.308Z,23.19
2019-05-20T05:35:22.580Z,23.28
2019-05-20T05:37:50.248Z,23.46
2019-05-20T05:40:18.371Z,23.86
2019-05-20T05:42:45.757Z,23.98
2019-05-20T05:45:13.324Z,24.01
2019-05-20T05:47:40.461Z,23.74
2019-05-20T05:50:08.322Z,23.31
2019-05-20T05:52:35.934Z,23.23
2019-05-20T05:55:04.325Z,23.26
2019-05-20T05:57:31.594Z,23.43
2019-05-20T05:59:59.373Z,23.90
2019-05-20T06:04:54.416Z,24.41
2019-05-20T06:07:21.726Z,24.63
2019-05-20T06:09:48.932Z,24.39
2019-05-20T06:12:16.590Z,24.47
2019-05-20T06:14:43.872Z,24.64
2019-05-20T06:17:11.069Z,24.47
2019-05-20T06:19:38.842Z,24.48
2019-05-20T06:22:06.652Z,24.45
2019-05-20T06:24:33.895Z,24.43
2019-05-20T06:27:01.256Z,24.30
2019-05-20T06:29:28.503Z,23.93
2019-05-20T06:31:55.956Z,23.54
2019-05-20T06:34:23.276Z,23.17
2019-05-20T06:36:52.684Z,22.67
2019-05-20T06:39:20.366Z,22.18
2019-05-20T06:41:48.012Z,21.48
2019-05-20T06:44:18.231Z,21.08
2019-05-20T06:46:45.549Z,20.72
2019-05-20T06:49:14.193Z,20.36
2019-05-20T06:51:41.414Z,20.07
2019-05-20T06:54:09.045Z,19.98
2019-05-20T06:56:36.602Z,20.07
2019-05-20T06:59:04.120Z,20.23
2019-05-20T07:01:31.510Z,20.43
2019-05-20T07:03:59.018Z,20.62
2019-05-20T07:06:44.083Z,20.72
2019-05-20T07:08:55.447Z,20.85
2019-05-20T07:11:22.734Z,21.16
2019-05-20T07:13:50.046Z,21.56
2019-05-20T07:16:17.409Z,21.79
2019-05-20T07:18:44.648Z,22.04
2019-05-20T07:21:12.027Z,22.27
2019-05-20T07:23:39.245Z,22.32
2019-05-20T07:26:06.498Z,22.42
2019-05-20T07:28:33.896Z,22.59
2019-05-20T07:31:01.132Z,22.88
2019-05-20T07:33:28.407Z,23.16
2019-05-20T07:35:55.618Z,23.49
2019-05-20T07:38:22.921Z,24.97
2019-05-20T07:40:50.218Z,26.27
2019-05-20T07:43:17.566Z,26.86
2019-05-20T07:45:47.112Z,26.89
2019-05-20T07:48:15.801Z,26.64
2019-05-20T07:50:43.314Z,26.46
2019-05-20T07:53:12.442Z,26.23
2019-05-20T07:55:49.107Z,26.02
2019-05-20T07:58:20.272Z,25.82
2019-05-20T08:00:47.594Z,25.53
2019-05-20T08:03:15.139Z,25.26
2019-05-20T08:05:42.285Z,25.13
2019-05-20T08:08:09.571Z,24.78
2019-05-20T08:10:37.102Z,24.33
2019-05-20T08:13:04.787Z,24.04
2019-05-20T08:15:32.182Z,23.99
2019-05-20T08:17:59.430Z,24.04
2019-05-20T08:20:26.692Z,24.12
2019-05-20T08:22:53.945Z,24.34
2019-05-20T08:25:21.263Z,24.63
2019-05-20T08:27:49.408Z,25.06
2019-05-20T08:30:24.498Z,25.37
2019-05-20T08:32:51.818Z,25.95
2019-05-20T08:35:19.097Z,26.79
2019-05-20T08:37:46.492Z,27.64
2019-05-20T08:40:14.140Z,28.07
2019-05-20T08:42:41.432Z,29.03
2019-05-20T08:45:09.188Z,30.07
2019-05-20T08:47:36.732Z,31.11
2019-05-20T08:50:07.367Z,32.12
2019-05-20T08:52:34.508Z,33.32
2019-05-20T08:55:02.362Z,35.02
2019-05-20T08:57:30.309Z,37.06
2019-05-20T09:00:00.863Z,37.02
2019-05-20T09:02:28.482Z,37.31
2019-05-20T09:04:55.696Z,38.24
2019-05-20T09:07:23.041Z,39.31
2019-05-20T09:09:50.371Z,40.51
2019-05-20T09:12:17.641Z,41.31
2019-05-20T09:14:45.002Z,41.97
2019-05-20T09:17:12.169Z,42.50
2019-05-20T09:19:39.873Z,42.80
2019-05-20T09:22:07.363Z,43.42
2019-05-20T09:24:34.751Z,43.65
2019-05-20T09:27:02.139Z,43.72
2019-05-20T09:29:29.771Z,43.98
2019-05-20T09:31:57.238Z,44.31
2019-05-20T09:34:24.909Z,44.62
2019-05-20T09:36:52.156Z,45.23
2019-05-20T09:39:19.397Z,45.81
2019-05-20T09:41:46.700Z,45.51
2019-05-20T09:44:14.021Z,45.26
2019-05-20T09:46:41.333Z,45.31
2019-05-20T09:49:08.573Z,46.15
2019-05-20T09:51:35.864Z,46.07
2019-05-20T09:54:03.868Z,46.08
2019-05-20T09:56:31.398Z,44.56
2019-05-20T09:58:59.358Z,41.84
2019-05-20T10:01:27.012Z,39.30
2019-05-20T10:03:55.085Z,37.22
2019-05-20T10:06:22.464Z,35.61
2019-05-20T10:08:50.813Z,34.35
2019-05-20T10:11:18.482Z,33.25
2019-05-20T10:13:45.753Z,32.87
2019-05-20T10:16:12.991Z,32.50
2019-05-20T10:18:40.311Z,32.72
2019-05-20T10:21:07.863Z,32.58
2019-05-20T10:23:35.127Z,32.45
2019-05-20T10:26:03.106Z,32.31
2019-05-20T10:28:30.429Z,32.11
2019-05-20T10:30:58.121Z,31.85
2019-05-20T10:33:25.682Z,30.93
2019-05-20T10:35:53.385Z,30.12
2019-05-20T10:38:21.337Z,29.42
2019-05-20T10:40:48.761Z,28.98
2019-05-20T10:43:16.809Z,28.43
2019-05-20T10:45:44.270Z,27.85
2019-05-20T10:48:11.527Z,27.14
2019-05-20T10:50:38.737Z,26.34
2019-05-20T10:53:06.280Z,25.66
2019-05-20T10:55:34.160Z,24.19
2019-05-20T10:58:01.346Z,23.36
2019-05-20T11:00:28.647Z,22.31
2019-05-20T11:02:56.169Z,21.20
2019-05-20T11:05:23.474Z,20.39
2019-05-20T11:07:50.868Z,20.25
2019-05-20T11:10:18.614Z,20.54
2019-05-20T11:12:46.041Z,20.85
2019-05-20T11:15:14.075Z,21.20
2019-05-20T11:17:41.201Z,21.47
2019-05-20T11:20:08.919Z,21.88
2019-05-20T11:22:36.825Z,22.30
2019-05-20T11:25:04.149Z,22.83
2019-05-20T11:27:31.473Z,23.10
2019-05-20T11:29:58.913Z,23.41
2019-05-20T11:32:26.540Z,23.77
2019-05-20T11:34:54.147Z,23.93
2019-05-20T11:37:21.699Z,23.91
2019-05-20T11:39:49.224Z,23.89
2019-05-20T11:42:16.869Z,23.92
2019-05-20T11:44:44.141Z,23.83
2019-05-20T11:47:11.371Z,23.67
2019-05-20T11:49:38.851Z,23.52
2019-05-20T11:52:06.166Z,23.33
2019-05-20T11:54:33.594Z,23.39
2019-05-20T11:57:00.808Z,23.43
2019-05-20T11:59:28.060Z,23.50
2019-05-20T12:01:55.521Z,23.72
2019-05-20T12:04:23.789Z,24.01
2019-05-20T12:06:51.116Z,24.13
2019-05-20T12:09:18.425Z,24.22
2019-05-20T12:11:45.739Z,24.18
2019-05-20T12:14:13.044Z,24.29
2019-05-20T12:16:40.348Z,24.35
2019-05-20T12:19:07.607Z,24.44
2019-05-20T12:21:34.878Z,24.29
2019-05-20T12:24:03.057Z,24.03
2019-05-20T12:26:31.068Z,23.93
2019-05-20T12:28:58.954Z,23.64
2019-05-20T12:31:26.212Z,23.51
2019-05-20T12:33:53.542Z,23.44
2019-05-20T12:36:21.947Z,23.19
2019-05-20T12:38:49.187Z,23.03
2019-05-20T12:41:16.517Z,22.81
2019-05-20T12:43:44.988Z,22.73
2019-05-20T12:46:12.902Z,22.73
2019-05-20T12:48:40.537Z,22.87
2019-05-20T12:51:07.938Z,23.26
2019-05-20T12:53:35.625Z,23.56
2019-05-20T12:56:03.665Z,23.56
2019-05-20T12:58:30.945Z,23.50
2019-05-20T13:00:58.229Z,23.42
2019-05-20T13:03:25.841Z,23.12
2019-05-20T13:05:53.038Z,22.51
2019-05-20T13:08:20.399Z,22.04
2019-05-20T13:10:47.784Z,21.59
2019-05-20T13:13:15.091Z,21.33
2019-05-20T13:15:42.672Z,21.23
2019-05-20T13:18:09.819Z,21.29
2019-05-20T13:20:37.276Z,21.36
2019-05-20T13:23:07.074Z,21.62
2019-05-20T13:25:34.228Z,21.75
2019-05-20T13:28:01.865Z,21.67
2019-05-20T13:30:29.462Z,21.62
2019-05-20T13:32:56.742Z,21.49
2019-05-20T13:35:24.663Z,21.33
2019-05-20T13:37:52.870Z,21.12
2019-05-20T13:40:20.675Z,20.89
2019-05-20T13:42:48.287Z,20.59
2019-05-20T13:45:17.890Z,20.31
2019-05-20T13:47:45.373Z,20.07
2019-05-20T13:50:12.875Z,19.99
2019-05-20T13:52:40.200Z,19.96
2019-05-20T13:55:07.795Z,19.84
2019-05-20T13:57:35.205Z,19.85
2019-05-20T14:00:02.836Z,19.90
2019-05-20T14:02:30.314Z,19.90
2019-05-20T14:04:57.678Z,19.91
2019-05-20T14:07:24.971Z,19.91
2019-05-20T14:09:52.916Z,20.08
2019-05-20T14:12:20.754Z,20.05
2019-05-20T14:14:48.018Z,20.10
2019-05-20T14:17:16.397Z,20.11
2019-05-20T14:19:43.816Z,20.17
2019-05-20T14:22:11.237Z,20.28
2019-05-20T14:24:38.889Z,20.40
2019-05-20T14:27:06.181Z,20.58
2019-05-20T14:29:33.650Z,20.57
2019-05-20T14:32:01.482Z,20.57
2019-05-20T14:34:28.829Z,20.46
2019-05-20T14:36:56.732Z,20.32
2019-05-20T14:39:24.020Z,20.37
2019-05-20T14:41:51.759Z,20.40
2019-05-20T14:44:19.434Z,20.33
2019-05-20T14:46:47.033Z,20.41
2019-05-20T14:49:15.019Z,20.39
2019-05-20T14:51:42.444Z,20.39
2019-05-20T14:54:09.746Z,20.38
2019-05-20T14:56:37.050Z,20.19
2019-05-20T14:59:04.436Z,20.01
2019-05-20T15:01:32.418Z,19.91
2019-05-20T15:03:59.629Z,19.85
2019-05-20T15:06:26.901Z,19.65
2019-05-20T15:08:54.205Z,19.56
2019-05-20T15:11:35.665Z,19.48
2019-05-20T15:13:50.746Z,19.30
2019-05-20T15:16:17.997Z,19.09
2019-05-20T15:18:45.249Z,18.99
2019-05-20T15:21:13.179Z,18.97
2019-05-20T15:23:40.591Z,18.94
2019-05-20T15:26:07.997Z,18.85
2019-05-20T15:28:36.062Z,18.83
2019-05-20T15:31:03.762Z,18.77
2019-05-20T15:33:31.004Z,18.81
2019-05-20T15:35:58.611Z,18.73
2019-05-20T15:38:25.875Z,18.68
2019-05-20T15:40:53.100Z,18.64
2019-05-20T15:43:20.431Z,18.64
2019-05-20T15:45:49.154Z,18.61
2019-05-20T15:48:16.834Z,18.64
2019-05-20T15:50:44.046Z,18.71
2019-05-20T15:53:12.805Z,18.75
2019-05-20T15:55:40.714Z,18.78
2019-05-20T15:58:07.964Z,18.78
2019-05-20T16:00:35.321Z,18.69
2019-05-20T16:03:02.867Z,18.59
2019-05-20T16:05:30.066Z,18.52
2019-05-20T16:07:57.404Z,18.50
2019-05-20T16:10:24.647Z,18.54
2019-05-20T16:12:51.970Z,18.53
2019-05-20T16:15:19.316Z,18.46
2019-05-20T16:17:48.501Z,18.40
2019-05-20T16:20:15.836Z,18.36
2019-05-20T16:22:43.392Z,18.31
2019-05-20T16:25:10.831Z,18.27
2019-05-20T16:27:38.096Z,18.18
2019-05-20T16:30:07.357Z,18.19
2019-05-20T16:32:34.992Z,18.23
2019-05-20T16:35:02.925Z,18.22
2019-05-20T16:37:30.630Z,18.27
2019-05-20T16:39:57.944Z,18.26
2019-05-20T16:42:25.439Z,18.20
2019-05-20T16:44:52.707Z,18.11
2019-05-20T16:47:20.380Z,18.05
2019-05-20T16:49:48.512Z,18.13
2019-05-20T16:52:17.854Z,18.14
2019-05-20T16:54:45.425Z,18.14
2019-05-20T16:57:13.735Z,18.10
2019-05-20T16:59:45.307Z,18.13
2019-05-20T17:02:12.691Z,18.15
2019-05-20T17:04:40.256Z,18.18
2019-05-20T17:07:07.877Z,18.18
2019-05-20T17:09:35.151Z,18.18
2019-05-20T17:12:02.861Z,18.19
2019-05-20T17:14:30.233Z,18.19
2019-05-20T17:16:58.067Z,18.21
2019-05-20T17:19:25.290Z,18.16
2019-05-20T17:21:53.068Z,18.15
2019-05-20T17:24:20.596Z,18.11
2019-05-20T17:26:47.862Z,18.07
2019-05-20T17:29:15.400Z,18.02
2019-05-20T17:31:42.839Z,18.04
2019-05-20T17:34:10.884Z,17.94
2019-05-20T17:36:38.127Z,17.88
2019-05-20T17:39:06.122Z,17.79
2019-05-20T17:41:33.567Z,17.74
2019-05-20T17:44:00.865Z,17.69
2019-05-20T17:46:28.269Z,17.64
2019-05-20T17:48:56.008Z,17.60
2019-05-20T17:51:23.582Z,17.57
2019-05-20T17:53:51.143Z,17.56
2019-05-20T17:56:19.286Z,17.40
2019-05-20T17:58:47.126Z,17.28
2019-05-20T18:01:16.104Z,17.20
2019-05-20T18:03:43.590Z,17.13
2019-05-20T18:06:12.976Z,17.12
2019-05-20T18:08:43.782Z,17.05
2019-05-20T18:11:11.025Z,17.00
2019-05-20T18:13:41.584Z,17.01
2019-05-20T18:16:09.171Z,16.97
2019-05-20T18:18:36.417Z,17.00
2019-05-20T18:21:03.674Z,16.89
2019-05-20T18:23:34.964Z,16.85
2019-05-20T18:26:04.727Z,16.82
2019-05-20T18:28:32.085Z,16.80
2019-05-20T18:30:59.355Z,16.80
2019-05-20T18:33:26.803Z,16.78
2019-05-20T18:35:54.056Z,16.74
2019-05-20T18:38:21.646Z,16.80
2019-05-20T18:40:49.495Z,16.78
2019-05-20T18:43:28.858Z,16.71
2019-05-20T18:45:56.217Z,16.64
2019-05-20T18:48:23.449Z,16.45
2019-05-20T18:50:50.937Z,16.40
2019-05-20T18:53:18.576Z,16.37
2019-05-20T18:55:45.772Z,16.30
2019-05-20T18:58:13.058Z,16.36
2019-05-20T19:00:40.655Z,16.40
2019-05-20T19:03:08.252Z,16.44
2019-05-20T19:05:35.458Z,16.33
2019-05-20T19:08:02.981Z,16.43
2019-05-20T19:10:30.159Z,16.43
2019-05-20T19:12:57.489Z,16.29
2019-05-20T19:15:25.382Z,16.24
2019-05-20T19:17:52.510Z,16.15
2019-05-20T19:20:22.851Z,16.04
2019-05-20T19:22:49.190Z,15.98
2019-05-20T19:25:16.857Z,15.99
2019-05-20T19:27:44.122Z,16.01
2019-05-20T19:30:13.950Z,16.05
2019-05-20T19:32:41.202Z,15.96
2019-05-20T19:35:08.429Z,15.90
2019-05-20T19:37:35.779Z,15.87
2019-05-20T19:40:03.735Z,15.83
2019-05-20T19:42:31.197Z,15.75
2019-05-20T19:44:58.509Z,15.84
2019-05-20T19:47:26.098Z,15.90
2019-05-20T19:49:54.953Z,15.83
2019-05-20T19:52:22.242Z,15.79
2019-05-20T19:54:49.634Z,15.80
2019-05-20T19:57:17.378Z,15.85
2019-05-20T19:59:44.689Z,15.81
2019-05-20T20:02:17.456Z,15.77
2019-05-20T20:04:41.543Z,15.74
2019-05-20T20:07:08.830Z,15.78
2019-05-20T20:09:36.168Z,15.78
2019-05-20T20:12:03.876Z,15.73
2019-05-20T20:14:32.259Z,15.68
2019-05-20T20:16:59.900Z,15.68
2019-05-20T20:19:27.243Z,15.69
2019-05-20T20:21:54.562Z,15.69
2019-05-20T20:24:22.406Z,15.70
2019-05-20T20:26:50.407Z,15.74
2019-05-20T20:29:18.023Z,15.73
2019-05-20T20:31:45.318Z,15.72
2019-05-20T20:34:12.530Z,15.74
2019-05-20T20:36:40.462Z,15.75
2019-05-20T20:39:09.011Z,15.74
2019-05-20T20:41:36.446Z,15.72
2019-05-20T20:44:04.062Z,15.75
2019-05-20T20:46:31.393Z,15.68
2019-05-20T20:48:58.627Z,15.74
2019-05-20T20:51:26.337Z,15.82
2019-05-20T20:53:53.722Z,15.87
2019-05-20T20:56:25.217Z,15.72
2019-05-20T20:58:50.493Z,15.58
2019-05-20T21:01:17.972Z,15.53
2019-05-20T21:03:45.537Z,15.44
2019-05-20T21:06:13.020Z,15.41
2019-05-20T21:08:41.506Z,15.44
2019-05-20T21:11:08.794Z,15.34
2019-05-20T21:13:36.097Z,15.22
2019-05-20T21:16:03.953Z,15.13
2019-05-20T21:18:31.489Z,15.29
2019-05-20T21:20:58.889Z,15.32
2019-05-20T21:23:26.185Z,15.42
2019-05-20T21:25:53.774Z,15.37
2019-05-20T21:28:21.238Z,15.31
2019-05-20T21:30:48.671Z,15.36
2019-05-20T21:33:18.016Z,15.34
2019-05-20T21:35:45.712Z,15.25
2019-05-20T21:38:13.017Z,15.23
2019-05-20T21:40:40.261Z,15.27
2019-05-20T21:43:08.153Z,15.20
2019-05-20T21:45:35.538Z,15.28
2019-05-20T21:48:03.934Z,15.20
2019-05-20T21:50:31.177Z,15.15
2019-05-20T21:52:58.474Z,15.16
2019-05-20T21:55:25.750Z,15.16
2019-05-20T21:57:53.023Z,15.18
2019-05-20T22:00:26.934Z,15.25
2019-05-20T22:02:55.148Z,15.23
2019-05-20T22:05:22.799Z,15.40
2019-05-20T22:07:50.522Z,15.42
2019-05-20T22:10:18.199Z,15.45
2019-05-20T22:12:45.551Z,15.45
2019-05-20T22:15:12.837Z,15.50
2019-05-20T22:17:40.017Z,15.48
2019-05-20T22:20:07.507Z,15.47
2019-05-20T22:22:40.878Z,15.34
2019-05-20T22:25:13.010Z,15.28
2019-05-20T22:27:40.316Z,15.46
2019-05-20T22:30:08.120Z,15.30
2019-05-20T22:32:35.650Z,15.22
2019-05-20T22:35:03.307Z,15.22
2019-05-20T22:37:30.945Z,15.19
2019-05-20T22:39:58.746Z,15.13
2019-05-20T22:42:26.290Z,15.04
2019-05-20T22:44:53.584Z,14.99
2019-05-20T22:47:20.940Z,14.99
2019-05-20T22:49:48.325Z,14.98
2019-05-20T22:52:15.688Z,14.90
2019-05-20T22:54:44.028Z,14.94
2019-05-20T22:57:11.457Z,14.97
2019-05-20T22:59:38.849Z,15.01
2019-05-20T23:02:06.129Z,15.03
2019-05-20T23:04:33.228Z,15.07
2019-05-20T23:07:00.509Z,14.99
2019-05-20T23:09:27.807Z,15.05
2019-05-20T23:11:55.072Z,14.99
2019-05-20T23:14:24.564Z,14.90
2019-05-20T23:16:51.979Z,14.85
2019-05-20T23:19:19.257Z,14.88
2019-05-20T23:21:46.511Z,14.80
2019-05-20T23:24:13.859Z,14.77
2019-05-20T23:26:41.888Z,14.86
2019-05-20T23:29:09.178Z,14.83
2019-05-20T23:31:36.444Z,14.81
2019-05-20T23:34:12.706Z,14.88
2019-05-20T23:36:33.179Z,14.89
2019-05-20T23:39:00.490Z,15.04
2019-05-20T23:41:27.713Z,15.01
2019-05-20T23:43:54.955Z,14.96
2019-05-20T23:46:22.223Z,14.94
2019-05-20T23:48:49.841Z,14.86
2019-05-20T23:51:17.132Z,14.78
2019-05-20T23:53:44.447Z,14.91
2019-05-20T23:56:12.174Z,14.80
2019-05-20T23:58:39.600Z,14.72
